Time;durP1;ratioP1;P1;durP2;ratioP2;P2;SDS_P1;SDS_P2;PMS_P1;PMS_P2;Temp;Humidity;BMP_temperature;BMP_pressure;BME280_temperature;BME280_humidity;BME280_pressure;Samples;Min_cycle;Max_cycle;Signal;HPM_P1;HPM_P2
2021/11/21 00:00:20;;;;;;;6.77;4.10;;;9.50;99.90;;;;;;5010407;28;20563;-51
2021/11/21 00:02:47;;;;;;;6.07;3.97;;;9.50;99.90;;;;;;5022352;28;20203;-49
2021/11/21 00:05:14;;;;;;;5.10;4.27;;;9.50;99.90;;;;;;5017192;28;20294;-51
2021/11/21 00:07:41;;;;;;;5.07;4.33;;;9.50;99.90;;;;;;5019044;28;20273;-50
2021/11/21 00:10:08;;;;;;;6.20;3.83;;;9.50;99.90;;;;;;5023657;28;20224;-53
2021/11/21 00:12:35;;;;;;;5.43;4.43;;;9.50;99.90;;;;;;5020060;28;20207;-51
2021/11/21 00:15:05;;;;;;;5.57;4.50;;;9.50;99.90;;;;;;5023946;28;20208;-53
2021/11/21 00:17:31;;;;;;;5.70;4.20;;;9.50;99.90;;;;;;5007543;28;20361;-50
2021/11/21 00:19:58;;;;;;;7.13;4.30;;;9.50;99.90;;;;;;5024241;28;20207;-50
2021/11/21 00:22:25;;;;;;;5.03;4.27;;;9.50;99.90;;;;;;5015424;28;20207;-53
2021/11/21 00:24:53;;;;;;;6.43;4.03;;;9.50;99.90;;;;;;5022951;28;20276;-51
2021/11/21 00:27:21;;;;;;;5.60;4.50;;;9.50;99.90;;;;;;5014472;28;20224;-53
2021/11/21 00:29:47;;;;;;;5.90;3.83;;;9.40;99.90;;;;;;5023277;28;20228;-51
2021/11/21 00:32:15;;;;;;;4.43;4.03;;;9.40;99.90;;;;;;5006207;28;20208;-53
2021/11/21 00:34:42;;;;;;;5.50;4.00;;;9.40;99.90;;;;;;5020640;28;20203;-51
2021/11/21 00:37:09;;;;;;;4.33;3.93;;;9.40;99.90;;;;;;5022901;28;20242;-51
2021/11/21 00:39:35;;;;;;;4.30;3.83;;;9.40;99.90;;;;;;5021489;28;20215;-50
2021/11/21 00:42:02;;;;;;;6.73;4.00;;;9.40;99.90;;;;;;5023744;28;20187;-51
2021/11/21 00:44:29;;;;;;;8.40;4.30;;;9.40;99.90;;;;;;5012577;28;20200;-51
2021/11/21 00:46:56;;;;;;;7.20;4.47;;;9.40;99.90;;;;;;5006772;28;20298;-50
2021/11/21 00:49:24;;;;;;;4.60;3.93;;;9.40;99.90;;;;;;5017964;28;20299;-50
2021/11/21 00:51:51;;;;;;;5.43;3.67;;;9.50;99.90;;;;;;5023522;28;20196;-51
2021/11/21 00:54:27;;;;;;;5.27;3.93;;;9.40;99.90;;;;;;5021388;28;20665;-52
2021/11/21 00:56:55;;;;;;;6.00;3.70;;;9.40;99.90;;;;;;5023418;28;20230;-50
2021/11/21 00:59:23;;;;;;;8.67;3.50;;;9.40;99.90;;;;;;5020408;28;20192;-48
2021/11/21 01:01:51;;;;;;;7.13;4.13;;;9.50;99.90;;;;;;5023685;28;20196;-51
2021/11/21 01:04:19;;;;;;;5.57;3.33;;;9.50;99.90;;;;;;5007825;28;20231;-49
2021/11/21 01:06:47;;;;;;;5.00;3.37;;;9.50;99.90;;;;;;5022820;28;20574;-48
2021/11/21 01:09:14;;;;;;;5.13;3.70;;;9.50;99.90;;;;;;5021741;28;20220;-51
2021/11/21 01:11:42;;;;;;;5.00;3.63;;;9.50;99.90;;;;;;5021827;28;20273;-50
2021/11/21 01:14:09;;;;;;;6.87;3.47;;;9.50;99.90;;;;;;5022885;28;20690;-52
2021/11/21 01:16:36;;;;;;;5.17;3.50;;;9.50;99.90;;;;;;5013639;28;20212;-47
2021/11/21 01:19:04;;;;;;;5.20;3.63;;;9.50;99.90;;;;;;5010303;28;20211;-48
2021/11/21 01:21:31;;;;;;;3.50;3.20;;;9.50;99.90;;;;;;5019214;28;20204;-47
2021/11/21 01:23:59;;;;;;;4.77;3.13;;;9.50;99.90;;;;;;5023721;28;20584;-51
2021/11/21 01:26:26;;;;;;;4.67;3.33;;;9.50;99.90;;;;;;5013326;28;20920;-48
2021/11/21 01:28:53;;;;;;;4.17;3.13;;;9.50;99.90;;;;;;5023412;28;20554;-51
2021/11/21 01:31:20;;;;;;;6.37;3.13;;;9.50;99.90;;;;;;5020267;28;20216;-51
2021/11/21 01:33:47;;;;;;;4.80;3.73;;;9.50;99.90;;;;;;5009851;28;20212;-46
2021/11/21 01:36:14;;;;;;;3.73;2.83;;;9.50;99.90;;;;;;5019575;28;20200;-49
2021/11/21 01:38:43;;;;;;;4.47;3.60;;;9.50;99.90;;;;;;5013916;28;20194;-48
2021/11/21 01:41:11;;;;;;;5.63;3.47;;;9.50;99.90;;;;;;5020369;28;20258;-51
2021/11/21 01:43:37;;;;;;;4.83;3.17;;;9.50;99.90;;;;;;5020930;28;20203;-46
2021/11/21 01:46:05;;;;;;;5.63;3.40;;;9.50;99.90;;;;;;5025177;28;20191;-49
2021/11/21 01:48:32;;;;;;;5.50;4.07;;;9.50;99.90;;;;;;5010935;28;22291;-48
2021/11/21 01:51:01;;;;;;;3.40;3.00;;;9.50;99.90;;;;;;5027120;28;20223;-46
2021/11/21 01:53:28;;;;;;;5.07;3.17;;;9.50;99.90;;;;;;5023051;28;20915;-48
2021/11/21 01:55:55;;;;;;;3.97;3.40;;;9.50;99.90;;;;;;5026463;28;20207;-47
2021/11/21 01:58:22;;;;;;;4.07;2.87;;;9.50;99.90;;;;;;5017549;28;20230;-50
2021/11/21 02:00:50;;;;;;;3.87;3.43;;;9.50;99.90;;;;;;5027121;28;20192;-47
2021/11/21 02:03:18;;;;;;;6.67;3.53;;;9.50;99.90;;;;;;5012446;28;20219;-49
2021/11/21 02:05:45;;;;;;;3.93;3.47;;;9.50;99.90;;;;;;5023082;28;20250;-49
2021/11/21 02:08:11;;;;;;;6.13;4.17;;;9.50;99.90;;;;;;5018905;28;20247;-50
2021/11/21 02:10:39;;;;;;;6.67;4.10;;;9.50;99.90;;;;;;5015901;28;20216;-52
2021/11/21 02:13:08;;;;;;;4.43;3.93;;;9.50;99.90;;;;;;5023958;28;20438;-51
2021/11/21 02:15:37;;;;;;;4.37;3.40;;;9.50;99.90;;;;;;5025288;28;20214;-49
2021/11/21 02:18:05;;;;;;;4.27;3.83;;;9.50;99.90;;;;;;5024548;28;20861;-47
2021/11/21 02:20:46;;;;;;;8.07;3.53;;;9.50;99.90;;;;;;5013842;28;20211;-51
2021/11/21 02:23:13;;;;;;;6.43;4.27;;;9.40;99.90;;;;;;5025968;28;20204;-47
2021/11/21 02:25:40;;;;;;;6.87;4.57;;;9.40;99.90;;;;;;5019859;28;20207;-52
2021/11/21 02:28:08;;;;;;;4.37;3.97;;;9.40;99.90;;;;;;5024888;28;20215;-48
2021/11/21 02:30:34;;;;;;;5.30;3.90;;;9.30;99.90;;;;;;5026143;28;20219;-50
2021/11/21 02:33:01;;;;;;;5.77;4.23;;;9.40;99.90;;;;;;5018788;28;20208;-46
2021/11/21 02:35:28;;;;;;;6.60;5.10;;;8.50;99.90;;;;;;5013835;28;20204;-47
2021/11/21 02:37:56;;;;;;;7.63;5.20;;;9.30;99.90;;;;;;5016820;28;20220;-46
2021/11/21 02:40:22;;;;;;;7.50;4.87;;;9.10;99.90;;;;;;5020456;28;20208;-47
2021/11/21 02:42:49;;;;;;;12.07;5.07;;;9.20;99.90;;;;;;5022849;28;20652;-50
2021/11/21 02:45:18;;;;;;;8.80;5.73;;;9.20;99.90;;;;;;5025931;28;20192;-49
2021/11/21 02:47:45;;;;;;;6.10;5.47;;;9.20;99.90;;;;;;5017731;28;20228;-51
2021/11/21 02:50:15;;;;;;;5.90;5.40;;;9.20;99.90;;;;;;5012741;28;20231;-49
2021/11/21 02:52:42;;;;;;;7.60;5.50;;;9.20;99.90;;;;;;5021965;28;20219;-50
2021/11/21 02:55:10;;;;;;;10.63;5.90;;;9.20;99.90;;;;;;5024962;28;20195;-46
2021/11/21 02:57:37;;;;;;;6.23;5.63;;;9.10;99.90;;;;;;5024060;28;20218;-50
2021/11/21 03:00:06;;;;;;;6.57;5.33;;;;;;;;;;5023765;28;20184;-49
2021/11/21 03:02:36;;;;;;;4.87;4.37;;;;;;;;;;5025402;28;20196;-51
2021/11/21 03:05:05;;;;;;;4.03;3.63;;;;;;;;;;5010678;28;20204;-48
2021/11/21 03:07:34;;;;;;;5.40;3.60;;;;;;;;;;5018632;28;20223;-50
2021/11/21 03:10:02;;;;;;;4.57;3.90;;;;;;;;;;5018971;28;20239;-53
2021/11/21 03:12:33;;;;;;;4.47;3.50;;;;;;;;;;5006074;28;20201;-50
2021/11/21 03:15:00;;;;;;;3.90;3.20;;;;;;;;;;5002989;28;20906;-50
2021/11/21 03:17:29;;;;;;;5.13;3.60;;;;;;;;;;5016059;28;20572;-49
2021/11/21 03:19:58;;;;;;;3.30;3.10;;;;;;;;;;5022003;28;20188;-48
2021/11/21 03:22:26;;;;;;;4.87;2.80;;;;;;;;;;5012695;28;20204;-47
2021/11/21 03:24:55;;;;;;;5.43;3.20;;;;;;;;;;5016777;28;20203;-45
2021/11/21 03:27:26;;;;;;;3.40;3.00;;;;;;;;;;5025193;28;20216;-46
2021/11/21 03:29:57;;;;;;;3.03;2.80;;;;;;;;;;5021198;28;20279;-47
2021/11/21 03:32:26;;;;;;;4.70;2.97;;;;;;;;;;5025658;28;20507;-46
2021/11/21 03:34:57;;;;;;;3.13;2.37;;;;;;;;;;5021602;28;20196;-46
2021/11/21 03:37:27;;;;;;;3.00;2.70;;;;;;;;;;5010731;28;20231;-50
2021/11/21 03:39:58;;;;;;;3.30;2.50;;;;;;;;;;5016838;28;20192;-46
2021/11/21 03:42:26;;;;;;;2.73;2.23;;;;;;;;;;5025366;28;20939;-46
2021/11/21 03:44:57;;;;;;;3.03;2.30;;;;;;;;;;5021351;28;20189;-48
2021/11/21 03:47:27;;;;;;;2.70;2.50;;;;;;;;;;5018959;28;20223;-49
2021/11/21 03:49:57;;;;;;;2.90;2.60;;;;;;;;;;5021360;28;20272;-49
2021/11/21 03:52:27;;;;;;;3.23;2.93;;;;;;;;;;5012136;28;20734;-50
2021/11/21 03:54:57;;;;;;;3.47;3.17;;;;;;;;;;5016304;28;20207;-47
2021/11/21 03:57:24;;;;;;;2.60;2.40;;;9.10;99.90;;;;;;5025144;28;20216;-47
2021/11/21 03:59:50;;;;;;;3.20;2.90;;;8.90;99.90;;;;;;5019753;28;20556;-51
2021/11/21 04:02:18;;;;;;;4.13;3.50;;;9.20;99.90;;;;;;5005139;28;20192;-46
2021/11/21 04:04:45;;;;;;;3.33;3.00;;;9.40;99.90;;;;;;5002779;28;20200;-52
2021/11/21 04:07:11;;;;;;;3.40;3.10;;;9.10;99.90;;;;;;4996419;28;20227;-50
2021/11/21 04:09:38;;;;;;;3.83;3.33;;;9.10;99.90;;;;;;5016688;28;20228;-51
2021/11/21 04:12:06;;;;;;;4.20;3.30;;;8.80;99.90;;;;;;5022493;28;20240;-52
2021/11/21 04:14:32;;;;;;;5.63;3.53;;;9.30;99.90;;;;;;5022702;28;20555;-51
2021/11/21 04:16:59;;;;;;;6.50;4.17;;;9.20;99.90;;;;;;5014324;28;20791;-49
2021/11/21 04:19:27;;;;;;;8.07;4.70;;;9.20;99.90;;;;;;5022028;28;20207;-50
2021/11/21 04:21:54;;;;;;;4.63;4.13;;;9.10;99.90;;;;;;5023331;28;20185;-47
2021/11/21 04:24:20;;;;;;;5.63;4.00;;;9.00;99.90;;;;;;5008728;28;20223;-51
2021/11/21 04:26:48;;;;;;;4.20;3.80;;;9.20;99.90;;;;;;5021593;28;20927;-47
2021/11/21 04:29:15;;;;;;;5.57;3.90;;;9.20;99.90;;;;;;5024356;28;20200;-49
2021/11/21 04:31:42;;;;;;;4.77;4.10;;;8.90;99.90;;;;;;5021048;28;20214;-45
2021/11/21 04:34:08;;;;;;;7.23;4.40;;;9.20;99.90;;;;;;5024522;28;20268;-47
2021/11/21 04:36:36;;;;;;;6.50;4.47;;;9.10;99.90;;;;;;5013946;28;20845;-51
2021/11/21 04:39:05;;;;;;;4.97;4.37;;;9.00;99.90;;;;;;5011708;28;20688;-48
2021/11/21 04:41:32;;;;;;;6.07;4.27;;;9.00;99.90;;;;;;5016122;28;20726;-47
2021/11/21 04:44:02;;;;;;;7.20;4.03;;;9.00;99.90;;;;;;5004740;28;20227;-46
2021/11/21 04:46:29;;;;;;;5.20;3.77;;;9.20;99.90;;;;;;5001404;28;20185;-50
2021/11/21 04:48:56;;;;;;;5.63;4.03;;;9.20;99.90;;;;;;5005920;28;20204;-49
2021/11/21 04:51:23;;;;;;;4.60;3.70;;;9.20;99.90;;;;;;5022069;28;20208;-51
2021/11/21 04:53:50;;;;;;;4.43;3.37;;;9.10;99.90;;;;;;5009424;28;20241;-49
2021/11/21 04:56:17;;;;;;;4.60;3.10;;;9.20;99.90;;;;;;5022890;28;20196;-50
2021/11/21 04:58:44;;;;;;;5.47;3.20;;;9.20;99.90;;;;;;5021182;28;20195;-47
2021/11/21 05:01:10;;;;;;;6.13;2.90;;;9.30;99.90;;;;;;5017372;28;20572;-51
2021/11/21 05:03:37;;;;;;;5.13;2.87;;;8.90;99.90;;;;;;5019347;28;20195;-46
2021/11/21 05:06:04;;;;;;;5.90;2.63;;;9.20;99.90;;;;;;5017337;28;20562;-47
2021/11/21 05:08:30;;;;;;;5.10;2.90;;;8.90;99.90;;;;;;5013040;28;20235;-49
2021/11/21 05:10:58;;;;;;;3.37;2.00;;;9.10;99.90;;;;;;5010748;28;20200;-49
2021/11/21 05:13:25;;;;;;;4.30;2.40;;;9.10;99.90;;;;;;5019220;28;20208;-51
2021/11/21 05:15:52;;;;;;;2.90;2.23;;;9.10;99.90;;;;;;5021703;28;20203;-51
2021/11/21 05:18:19;;;;;;;3.43;2.00;;;9.00;99.90;;;;;;5022479;28;20231;-51
2021/11/21 05:20:46;;;;;;;5.23;2.33;;;8.90;99.90;;;;;;5018531;28;20184;-49
2021/11/21 05:23:12;;;;;;;3.50;1.70;;;9.10;99.90;;;;;;5017617;28;20208;-47
2021/11/21 05:25:39;;;;;;;3.80;1.50;;;8.80;99.90;;;;;;5006822;28;20211;-47
2021/11/21 05:28:07;;;;;;;3.33;1.73;;;8.80;99.90;;;;;;5016025;28;20228;-45
2021/11/21 05:30:33;;;;;;;4.33;1.50;;;9.20;99.90;;;;;;5014532;28;20202;-49
2021/11/21 05:33:00;;;;;;;3.07;1.50;;;9.00;99.90;;;;;;5003778;28;20217;-50
2021/11/21 05:35:27;;;;;;;1.80;1.40;;;9.10;99.90;;;;;;5014438;28;20572;-49
2021/11/21 05:37:55;;;;;;;1.93;1.57;;;9.00;99.90;;;;;;5016321;28;20235;-47
2021/11/21 05:40:22;;;;;;;3.63;1.77;;;9.00;99.90;;;;;;5015704;28;20199;-50
2021/11/21 05:42:49;;;;;;;4.30;1.87;;;9.20;99.90;;;;;;5015279;28;20204;-52
2021/11/21 05:45:17;;;;;;;4.53;1.90;;;8.90;99.90;;;;;;5022276;28;20199;-53
2021/11/21 05:47:44;;;;;;;4.63;2.17;;;8.90;99.90;;;;;;5018441;28;20208;-45
2021/11/21 05:50:14;;;;;;;6.67;2.00;;;8.80;99.90;;;;;;5021745;28;20215;-47
2021/11/21 05:52:42;;;;;;;2.63;1.63;;;9.00;99.90;;;;;;5014938;28;20298;-47
2021/11/21 05:55:09;;;;;;;3.53;1.80;;;9.10;99.90;;;;;;5018707;28;20214;-47
2021/11/21 05:57:36;;;;;;;2.40;1.90;;;9.00;99.90;;;;;;5006033;28;20215;-49
2021/11/21 06:00:06;;;;;;;6.23;2.30;;;8.80;99.90;;;;;;5017717;28;20208;-45
2021/11/21 06:02:40;;;;;;;3.10;1.90;;;8.80;99.90;;;;;;5011700;28;20198;-52
2021/11/21 06:05:07;;;;;;;5.43;2.30;;;8.90;99.90;;;;;;5022242;28;20671;-47
2021/11/21 06:07:34;;;;;;;10.17;2.87;;;8.90;99.90;;;;;;5016406;28;20873;-45
2021/11/21 06:10:02;;;;;;;3.23;2.50;;;8.90;99.90;;;;;;5018779;28;20773;-47
2021/11/21 06:12:29;;;;;;;10.90;3.43;;;8.80;99.90;;;;;;5006790;28;20220;-50
2021/11/21 06:14:55;;;;;;;5.47;2.57;;;8.90;99.90;;;;;;5020264;28;20200;-48
2021/11/21 06:17:22;;;;;;;7.47;3.50;;;9.10;99.90;;;;;;5019326;28;20223;-50
2021/11/21 06:19:50;;;;;;;6.77;3.53;;;8.90;99.90;;;;;;5011679;28;20204;-45
2021/11/21 06:22:18;;;;;;;4.63;2.87;;;8.80;99.90;;;;;;5021968;28;20567;-51
2021/11/21 06:24:44;;;;;;;5.60;3.93;;;9.00;99.90;;;;;;5020148;28;20211;-49
2021/11/21 06:27:12;;;;;;;10.30;3.00;;;9.10;99.90;;;;;;5004616;28;20594;-45
2021/11/21 06:29:39;;;;;;;8.53;3.07;;;8.90;99.90;;;;;;5016882;28;20301;-47
2021/11/21 06:32:07;;;;;;;5.90;2.60;;;8.90;99.90;;;;;;5022798;28;20611;-49
2021/11/21 06:34:34;;;;;;;5.13;2.73;;;8.70;99.90;;;;;;5018553;28;20199;-53
2021/11/21 06:37:04;;;;;;;8.23;2.67;;;8.70;99.90;;;;;;5025332;28;20223;-46
2021/11/21 06:39:33;;;;;;;7.50;2.10;;;8.90;99.90;;;;;;5015885;28;20258;-52
2021/11/21 06:41:59;;;;;;;6.93;2.60;;;8.70;99.90;;;;;;5013645;28;20216;-46
2021/11/21 06:44:26;;;;;;;7.30;2.73;;;8.80;99.90;;;;;;5023930;28;20886;-50
2021/11/21 06:46:53;;;;;;;8.90;3.00;;;8.80;99.90;;;;;;5025319;28;20219;-47
2021/11/21 06:49:19;;;;;;;3.43;1.63;;;8.60;99.90;;;;;;5025444;28;20196;-49
2021/11/21 06:51:46;;;;;;;9.27;2.17;;;8.80;99.90;;;;;;5017595;28;20235;-47
2021/11/21 06:54:14;;;;;;;6.50;1.80;;;8.70;99.90;;;;;;5016592;28;20223;-52
2021/11/21 06:56:42;;;;;;;5.70;1.70;;;8.90;99.90;;;;;;5019478;28;20306;-49
2021/11/21 06:59:09;;;;;;;9.63;2.00;;;8.80;99.90;;;;;;5009267;28;20212;-48
2021/11/21 07:01:37;;;;;;;8.43;2.00;;;8.80;99.90;;;;;;5020759;28;20956;-49
2021/11/21 07:04:05;;;;;;;6.93;2.00;;;;;;;;;;5023873;28;20207;-49
2021/11/21 07:06:34;;;;;;;10.70;2.50;;;;;;;;;;5024743;28;20215;-49
2021/11/21 07:09:02;;;;;;;5.60;2.40;;;;;;;;;;5014586;28;20204;-49
2021/11/21 07:11:35;;;;;;;9.10;1.47;;;;;;;;;;5019748;28;20200;-47
2021/11/21 07:14:05;;;;;;;6.93;2.00;;;;;;;;;;5008245;28;20218;-50
2021/11/21 07:16:31;;;;;;;5.77;2.00;;;8.80;99.90;;;;;;5011346;28;20227;-47
2021/11/21 07:18:58;;;;;;;3.03;1.67;;;8.70;99.90;;;;;;5024270;28;20207;-49
2021/11/21 07:21:25;;;;;;;9.80;2.23;;;8.70;99.90;;;;;;5016351;28;20287;-47
2021/11/21 07:23:52;;;;;;;11.13;2.83;;;8.70;99.90;;;;;;5022372;28;20213;-48
2021/11/21 07:26:18;;;;;;;7.80;2.23;;;8.60;99.90;;;;;;5012876;28;20886;-48
2021/11/21 07:28:46;;;;;;;6.40;2.03;;;;;;;;;;5026154;28;20219;-47
2021/11/21 07:31:14;;;;;;;11.73;2.57;;;;;;;;;;5001507;28;20212;-52
2021/11/21 07:33:40;;;;;;;8.13;3.00;;;8.60;99.90;;;;;;5026153;28;20220;-45
2021/11/21 07:36:07;;;;;;;9.03;2.63;;;8.60;99.90;;;;;;5017307;28;20226;-52
2021/11/21 07:38:34;;;;;;;5.10;2.20;;;8.50;99.90;;;;;;5026359;28;20203;-47
2021/11/21 07:41:01;;;;;;;8.70;2.30;;;8.50;99.90;;;;;;5019790;28;20200;-52
2021/11/21 07:43:28;;;;;;;9.00;2.60;;;8.50;99.90;;;;;;5021850;28;20196;-50
2021/11/21 07:45:58;;;;;;;8.07;2.37;;;8.40;99.90;;;;;;5008958;28;20770;-48
2021/11/21 07:48:24;;;;;;;6.03;2.20;;;8.40;99.90;;;;;;5021739;28;20246;-45
2021/11/21 07:50:51;;;;;;;5.53;2.37;;;8.40;99.90;;;;;;5018757;28;20204;-49
2021/11/21 07:53:18;;;;;;;6.63;2.77;;;8.40;99.90;;;;;;5020847;28;20211;-47
2021/11/21 07:55:44;;;;;;;7.17;2.27;;;8.40;99.90;;;;;;5020237;28;20196;-47
2021/11/21 07:58:11;;;;;;;5.43;2.37;;;8.40;99.90;;;;;;5018414;28;20219;-47
2021/11/21 08:00:38;;;;;;;5.77;2.33;;;8.40;99.90;;;;;;5010898;28;20207;-46
2021/11/21 08:03:06;;;;;;;12.23;2.40;;;8.40;99.90;;;;;;5020415;28;20200;-50
2021/11/21 08:05:32;;;;;;;6.90;2.27;;;8.40;99.90;;;;;;5029355;28;20279;-45
2021/11/21 08:07:59;;;;;;;9.07;2.63;;;8.40;99.90;;;;;;5021790;28;20231;-51
2021/11/21 08:10:25;;;;;;;8.53;2.40;;;8.40;99.90;;;;;;5015942;28;20208;-45
2021/11/21 08:12:52;;;;;;;6.67;1.77;;;8.40;99.90;;;;;;5020213;28;20219;-47
2021/11/21 08:15:19;;;;;;;10.20;2.23;;;8.30;99.90;;;;;;5006765;28;21084;-46
2021/11/21 08:17:45;;;;;;;6.07;2.13;;;8.40;99.90;;;;;;5024104;28;20218;-45
2021/11/21 08:20:14;;;;;;;6.47;2.40;;;8.40;99.90;;;;;;5016407;28;20219;-46
2021/11/21 08:22:40;;;;;;;5.30;2.50;;;8.50;99.90;;;;;;5027162;28;20196;-48
2021/11/21 08:25:08;;;;;;;6.33;2.17;;;8.50;99.90;;;;;;5022843;28;20287;-52
2021/11/21 08:27:35;;;;;;;6.83;2.63;;;8.50;99.90;;;;;;5022135;28;20227;-50
2021/11/21 08:30:03;;;;;;;5.80;3.00;;;8.50;99.90;;;;;;5021041;28;20196;-50
2021/11/21 08:32:30;;;;;;;8.83;2.97;;;8.50;99.90;;;;;;5005152;28;20980;-47
2021/11/21 08:34:56;;;;;;;9.57;3.23;;;8.50;99.90;;;;;;5020291;28;20211;-50
2021/11/21 08:37:24;;;;;;;11.40;3.87;;;8.50;99.90;;;;;;5021060;28;20204;-47
2021/11/21 08:39:51;;;;;;;8.40;3.63;;;8.50;99.90;;;;;;5027012;28;20225;-50
2021/11/21 08:42:18;;;;;;;13.50;3.17;;;8.60;99.90;;;;;;5021199;28;20927;-48
2021/11/21 08:44:45;;;;;;;8.00;2.33;;;8.60;99.90;;;;;;5020606;28;20668;-46
2021/11/21 08:47:11;;;;;;;6.20;2.30;;;8.60;99.90;;;;;;5001860;28;20227;-49
2021/11/21 08:49:38;;;;;;;13.03;3.67;;;8.70;99.90;;;;;;5019111;28;20271;-45
2021/11/21 08:52:06;;;;;;;10.93;2.43;;;8.70;99.90;;;;;;5023240;28;20199;-48
2021/11/21 08:54:34;;;;;;;10.47;2.40;;;8.70;99.90;;;;;;5010776;28;20224;-46
2021/11/21 08:57:01;;;;;;;9.10;3.07;;;8.80;99.90;;;;;;5022683;28;20244;-51
2021/11/21 08:59:28;;;;;;;11.50;2.23;;;8.90;99.90;;;;;;5015364;28;20196;-48
2021/11/21 09:01:54;;;;;;;5.90;1.63;;;8.80;99.90;;;;;;5005194;28;20211;-48
2021/11/21 09:04:21;;;;;;;8.90;1.93;;;8.80;99.90;;;;;;5015986;28;20223;-49
2021/11/21 09:06:48;;;;;;;6.93;2.73;;;8.80;99.90;;;;;;5018572;28;20231;-48
2021/11/21 09:09:15;;;;;;;7.83;2.10;;;8.70;99.90;;;;;;5013384;28;20289;-48
2021/11/21 09:11:43;;;;;;;6.40;2.47;;;8.80;99.90;;;;;;5020252;28;20235;-48
2021/11/21 09:14:14;;;;;;;9.07;1.80;;;8.80;99.90;;;;;;5005642;28;20290;-52
2021/11/21 09:16:41;;;;;;;13.67;2.73;;;8.90;99.90;;;;;;5014606;28;20227;-47
2021/11/21 09:19:07;;;;;;;6.27;1.60;;;9.00;99.90;;;;;;5007689;28;20215;-53
2021/11/21 09:21:34;;;;;;;6.00;1.70;;;9.10;99.90;;;;;;5016852;28;20207;-52
2021/11/21 09:24:01;;;;;;;6.67;1.90;;;9.20;99.90;;;;;;5028616;28;20199;-52
2021/11/21 09:26:29;;;;;;;8.97;1.37;;;9.20;99.90;;;;;;5025331;28;20917;-51
2021/11/21 09:28:57;;;;;;;9.80;2.07;;;9.20;99.90;;;;;;5017935;28;20200;-50
2021/11/21 09:31:24;;;;;;;8.27;2.00;;;9.30;99.90;;;;;;5015730;28;20207;-53
2021/11/21 09:33:51;;;;;;;7.43;1.80;;;9.20;99.90;;;;;;5010532;28;20223;-48
2021/11/21 09:36:17;;;;;;;8.57;1.60;;;9.10;99.90;;;;;;5014652;28;20203;-50
2021/11/21 09:38:44;;;;;;;4.43;1.23;;;8.90;99.90;;;;;;5023487;28;20203;-51
2021/11/21 09:41:12;;;;;;;5.40;1.30;;;8.80;99.90;;;;;;5020976;28;20204;-50
2021/11/21 09:43:40;;;;;;;6.63;1.87;;;8.80;99.90;;;;;;5016586;28;20641;-52
2021/11/21 09:46:10;;;;;;;10.27;1.97;;;8.80;99.90;;;;;;5012195;28;20198;-53
2021/11/21 09:48:38;;;;;;;9.27;1.37;;;8.80;99.90;;;;;;5009206;28;20231;-51
2021/11/21 09:51:05;;;;;;;4.00;1.30;;;8.90;99.90;;;;;;5013198;28;20207;-51
2021/11/21 09:53:31;;;;;;;16.20;2.07;;;8.90;99.90;;;;;;5019297;28;20212;-54
2021/11/21 09:55:58;;;;;;;3.13;1.00;;;8.90;99.90;;;;;;5022690;28;20207;-50
2021/11/21 09:58:26;;;;;;;6.50;1.70;;;8.90;99.90;;;;;;5020241;28;20919;-52
2021/11/21 10:00:53;;;;;;;6.10;1.20;;;8.90;99.90;;;;;;5011512;28;20211;-53
2021/11/21 10:03:21;;;;;;;5.70;1.73;;;9.00;99.90;;;;;;5006752;28;20240;-54
2021/11/21 10:05:50;;;;;;;7.13;1.50;;;9.00;99.90;;;;;;5026646;28;20204;-52
2021/11/21 10:08:18;;;;;;;7.03;1.70;;;9.10;99.90;;;;;;5018472;28;20243;-47
2021/11/21 10:10:47;;;;;;;12.20;1.50;;;9.10;99.90;;;;;;5021545;28;20204;-46
2021/11/21 10:13:30;;;;;;;5.57;1.53;;;9.20;99.90;;;;;;5023247;28;20219;-50
2021/11/21 10:15:58;;;;;;;5.30;1.87;;;9.20;99.90;;;;;;5025213;28;20286;-51
2021/11/21 10:18:26;;;;;;;7.83;1.87;;;9.30;99.90;;;;;;5019411;28;21007;-47
2021/11/21 10:20:53;;;;;;;5.63;1.53;;;9.40;99.90;;;;;;5010967;28;20215;-48
2021/11/21 10:23:21;;;;;;;7.73;1.27;;;9.50;99.90;;;;;;5022383;28;20208;-47
2021/11/21 10:25:52;;;;;;;7.00;1.77;;;9.50;99.90;;;;;;5034432;28;20212;-49
2021/11/21 10:28:22;;;;;;;7.37;1.90;;;9.50;99.90;;;;;;5021569;28;20289;-53
2021/11/21 10:31:11;;;;;;;9.57;1.77;;;9.50;99.90;;;;;;5021812;28;21001;-52
2021/11/21 10:33:42;;;;;;;7.93;1.43;;;9.40;99.90;;;;;;5015339;28;20238;-47
2021/11/21 10:36:12;;;;;;;2.60;1.30;;;9.30;99.90;;;;;;5007435;28;20258;-53
2021/11/21 10:38:42;;;;;;;7.40;1.40;;;9.20;99.90;;;;;;5019735;28;20212;-50
2021/11/21 10:41:12;;;;;;;4.73;1.30;;;9.20;99.90;;;;;;5017181;28;20693;-52
2021/11/21 10:44:01;;;;;;;6.97;1.90;;;9.20;99.90;;;;;;5026085;28;20192;-54
2021/11/21 10:46:31;;;;;;;4.33;1.23;;;9.20;99.90;;;;;;5013290;28;20758;-50
2021/11/21 10:49:21;;;;;;;6.20;1.43;;;9.10;99.90;;;;;;5020316;28;20653;-50
2021/11/21 10:51:49;;;;;;;6.43;1.03;;;9.00;99.90;;;;;;5013131;28;20665;-54
2021/11/21 10:54:24;;;;;;;6.17;1.50;;;9.00;99.90;;;;;;5019557;28;20281;-53
2021/11/21 10:56:54;;;;;;;5.10;1.13;;;9.00;99.90;;;;;;5028984;28;20226;-54
2021/11/21 10:59:37;;;;;;;4.70;1.00;;;9.00;99.90;;;;;;5020779;28;20232;-53
2021/11/21 11:02:09;;;;;;;5.63;1.10;;;9.00;99.90;;;;;;5018507;28;20216;-56
2021/11/21 11:04:37;;;;;;;7.33;1.33;;;9.10;99.90;;;;;;5022060;28;20215;-51
2021/11/21 11:07:13;;;;;;;7.03;1.60;;;9.10;99.90;;;;;;5010930;28;20231;-51
2021/11/21 11:09:39;;;;;;;4.83;1.10;;;9.20;99.90;;;;;;5014990;28;20199;-48
2021/11/21 11:12:07;;;;;;;8.13;1.30;;;9.20;99.90;;;;;;5018994;28;20665;-51
2021/11/21 11:14:33;;;;;;;5.73;1.43;;;9.20;99.90;;;;;;5024347;28;20216;-52
2021/11/21 11:17:00;;;;;;;4.87;1.10;;;9.30;99.90;;;;;;5024225;28;20246;-50
2021/11/21 11:19:29;;;;;;;5.67;1.33;;;9.30;99.90;;;;;;5015645;28;20219;-53
2021/11/21 11:21:57;;;;;;;5.07;1.10;;;9.40;99.90;;;;;;5022893;28;20203;-46
2021/11/21 11:24:26;;;;;;;3.60;0.93;;;9.40;99.90;;;;;;5013522;28;20279;-49
2021/11/21 11:27:02;;;;;;;10.00;1.10;;;9.50;99.90;;;;;;5015331;28;20225;-48
2021/11/21 11:29:35;;;;;;;7.40;1.17;;;9.50;99.90;;;;;;5021839;28;20356;-51
2021/11/21 11:32:21;;;;;;;6.43;1.03;;;9.50;99.90;;;;;;5014534;28;20767;-52
2021/11/21 11:34:49;;;;;;;4.60;1.50;;;9.60;99.90;;;;;;5020875;28;20227;-50
2021/11/21 11:37:39;;;;;;;6.80;1.27;;;9.60;99.90;;;;;;5001217;28;20421;-48
2021/11/21 11:40:27;;;;;;;3.93;1.23;;;9.70;99.90;;;;;;5017757;28;21258;-53
2021/11/21 11:42:54;;;;;;;6.40;1.40;;;9.70;99.90;;;;;;5016378;28;20200;-51
2021/11/21 11:45:40;;;;;;;8.80;2.00;;;9.70;99.90;;;;;;5024362;28;20207;-48
2021/11/21 11:48:32;;;;;;;6.73;1.50;;;9.70;99.90;;;;;;5020141;28;20932;-51
2021/11/21 11:51:00;;;;;;;5.17;1.03;;;9.70;99.90;;;;;;5016304;28;20803;-48
2021/11/21 11:53:35;;;;;;;4.10;1.17;;;9.70;99.90;;;;;;5010916;28;20611;-46
2021/11/21 11:56:21;;;;;;;6.47;1.00;;;9.70;99.90;;;;;;5016145;28;20203;-49
2021/11/21 11:58:50;;;;;;;5.63;1.20;;;9.80;99.90;;;;;;5010760;28;20196;-51
2021/11/21 12:01:51;;;;;;;6.97;1.37;;;9.80;99.90;;;;;;5022359;28;20207;-54
2021/11/21 12:04:45;;;;;;;6.80;0.90;;;9.80;99.90;;;;;;5003244;28;20219;-50
2021/11/21 12:07:22;;;;;;;3.53;1.10;;;9.80;99.90;;;;;;5019865;28;20235;-51
2021/11/21 12:09:58;;;;;;;7.37;1.80;;;9.80;99.90;;;;;;5011649;28;20211;-51
2021/11/21 12:13:12;;;;;;;11.33;1.43;;;9.70;99.90;;;;;;5021316;28;20265;-48
2021/11/21 12:16:00;;;;;;;5.00;1.10;;;9.60;99.90;;;;;;5020604;28;20330;-52
2021/11/21 12:18:57;;;;;;;6.80;1.63;;;9.60;99.90;;;;;;5031898;28;20777;-50
2021/11/21 12:21:41;;;;;;;7.13;1.23;;;9.60;99.90;;;;;;5032145;28;20266;-51
2021/11/21 12:24:19;;;;;;;5.47;1.20;;;9.50;99.90;;;;;;5009189;28;20196;-52
2021/11/21 12:26:47;;;;;;;5.37;1.20;;;9.50;99.90;;;;;;5012266;28;20696;-53
2021/11/21 12:29:34;;;;;;;8.50;1.60;;;9.50;99.90;;;;;;5017827;28;20203;-52
2021/11/21 12:32:25;;;;;;;6.13;1.80;;;9.60;99.90;;;;;;5017171;28;20195;-49
2021/11/21 12:34:53;;;;;;;7.60;1.23;;;9.70;99.90;;;;;;5022880;28;20242;-48
2021/11/21 12:37:40;;;;;;;5.03;2.00;;;9.80;99.90;;;;;;5019368;28;20306;-50
2021/11/21 12:40:20;;;;;;;7.10;1.40;;;9.90;99.90;;;;;;5011970;28;20203;-48
2021/11/21 12:42:55;;;;;;;4.63;1.27;;;10.00;99.90;;;;;;5038287;28;20199;-52
2021/11/21 12:45:24;;;;;;;10.43;2.00;;;10.00;99.90;;;;;;5026780;28;20691;-48
2021/11/21 12:47:52;;;;;;;6.20;1.10;;;10.10;99.90;;;;;;5017562;28;20227;-53
2021/11/21 12:50:24;;;;;;;4.90;1.27;;;10.10;99.90;;;;;;5030390;28;20188;-49
2021/11/21 12:52:58;;;;;;;6.20;1.37;;;10.20;99.90;;;;;;5016897;28;20200;-53
2021/11/21 12:55:26;;;;;;;6.90;1.07;;;10.20;99.90;;;;;;5005372;28;20220;-50
2021/11/21 12:57:56;;;;;;;7.77;1.10;;;10.30;99.90;;;;;;5022464;28;20200;-50
2021/11/21 13:00:25;;;;;;;13.57;1.80;;;10.40;99.90;;;;;;5020315;28;20204;-48
2021/11/21 13:02:57;;;;;;;18.93;2.80;;;10.50;99.90;;;;;;5015313;28;20200;-48
2021/11/21 13:05:24;;;;;;;57.83;20.07;;;10.50;99.90;;;;;;5023227;28;20250;-48
2021/11/21 13:07:51;;;;;;;10.87;5.03;;;10.50;99.90;;;;;;5015436;28;22648;-50
2021/11/21 13:10:20;;;;;;;4.70;1.47;;;10.50;99.90;;;;;;5010140;28;20216;-47
2021/11/21 13:12:49;;;;;;;4.60;1.23;;;10.50;99.90;;;;;;5013336;28;20944;-50
2021/11/21 13:15:19;;;;;;;3.27;1.00;;;10.40;99.90;;;;;;5022519;28;20216;-52